地図

経路データ

SID SEASON NUMBER BASIN SUBBASIN NAME ISO_TIME NATURE LAT LON WMO_WIND WMO_PRES WMO_AGENCY TRACK_TYPE DIST2LAND LANDFALL IFLAG USA_AGENCY USA_ATCF_ID USA_LAT USA_LON USA_RECORD USA_STATUS USA_WIND USA_PRES USA_SSHS USA_R34_NE USA_R34_SE USA_R34_SW USA_R34_NW USA_R50_NE USA_R50_SE USA_R50_SW USA_R50_NW USA_R64_NE USA_R64_SE USA_R64_SW USA_R64_NW USA_POCI USA_ROCI USA_RMW USA_EYE TOKYO_LAT TOKYO_LON TOKYO_GRADE TOKYO_WIND TOKYO_PRES TOKYO_R50_DIR TOKYO_R50_LONG TOKYO_R50_SHORT TOKYO_R30_DIR TOKYO_R30_LONG TOKYO_R30_SHORT TOKYO_LAND CMA_LAT CMA_LON CMA_CAT CMA_WIND CMA_PRES HKO_LAT HKO_LON HKO_CAT HKO_WIND HKO_PRES NEWDELHI_LAT NEWDELHI_LON NEWDELHI_GRADE NEWDELHI_WIND NEWDELHI_PRES NEWDELHI_CI NEWDELHI_DP NEWDELHI_POCI REUNION_LAT REUNION_LON REUNION_TYPE REUNION_WIND REUNION_PRES REUNION_TNUM REUNION_CI REUNION_RMW REUNION_R34_NE REUNION_R34_SE REUNION_R34_SW REUNION_R34_NW REUNION_R50_NE REUNION_R50_SE REUNION_R50_SW REUNION_R50_NW REUNION_R64_NE REUNION_R64_SE REUNION_R64_SW REUNION_R64_NW BOM_LAT BOM_LON BOM_TYPE BOM_WIND BOM_PRES BOM_TNUM BOM_CI BOM_RMW BOM_R34_NE BOM_R34_SE BOM_R34_SW BOM_R34_NW BOM_R50_NE BOM_R50_SE BOM_R50_SW BOM_R50_NW BOM_R64_NE BOM_R64_SE BOM_R64_SW BOM_R64_NW BOM_ROCI BOM_POCI BOM_EYE BOM_POS_METHOD BOM_PRES_METHOD NADI_LAT NADI_LON NADI_CAT NADI_WIND NADI_PRES WELLINGTON_LAT WELLINGTON_LON WELLINGTON_WIND WELLINGTON_PRES DS824_LAT DS824_LON DS824_STAGE DS824_WIND DS824_PRES TD9636_LAT TD9636_LON TD9636_STAGE TD9636_WIND TD9636_PRES TD9635_LAT TD9635_LON TD9635_WIND TD9635_PRES TD9635_ROCI NEUMANN_LAT NEUMANN_LON NEUMANN_CLASS NEUMANN_WIND NEUMANN_PRES MLC_LAT MLC_LON MLC_CLASS MLC_WIND MLC_PRES USA_GUST BOM_GUST BOM_GUST_PER REUNION_GUST REUNION_GUST_PER USA_SEAHGT USA_SEARAD_NE USA_SEARAD_SE USA_SEARAD_SW USA_SEARAD_NW STORM_SPEED STORM_DIR
1951237N16259 1951 60 EP MM NOT_NAMED 1951-08-24 12:00:00 TS 15.6000 -101.000 45 hurdat_epa main 176 165 O________OO___ hurdat_epa EP061951 15.6000 -101.000 TS 45 0 15.6000 -101.000 TC 45 15.6000 -101.000 2 26 293
1951237N16259 1951 60 EP MM NOT_NAMED 1951-08-24 15:00:00 TS 16.1127 -102.231 main 178 173 P________PP___ EP061951 16.1143 -102.254 TS 45 0 16.1143 -102.254 TC 45 16.1063 -102.141 2 25 294
1951237N16259 1951 60 EP MM NOT_NAMED 1951-08-24 18:00:00 TS 16.5975 -103.368 45 hurdat_epa main 176 163 O________OP___ hurdat_epa EP061951 16.6000 -103.400 TS 45 0 16.6000 -103.400 TC 45 16.5874 -103.238 2 22 295
1951237N16259 1951 60 EP MM NOT_NAMED 1951-08-24 21:00:00 TS 17.0344 -104.327 main 168 164 P________PP___ EP061951 17.0369 -104.348 TS 45 0 17.0369 -104.348 TC 45 17.0245 -104.242 2 18 296
1951237N16259 1951 60 EP MM NOT_NAMED 1951-08-25 00:00:00 TS 17.4000 -105.100 45 hurdat_epa main 197 192 O________OO___ hurdat_epa EP061951 17.4000 -105.100 TS 45 0 17.4000 -105.100 TC 45 17.4000 -105.100 2 15 296
1951237N16259 1951 60 EP MM NOT_NAMED 1951-08-25 03:00:00 TS 17.6727 -105.713 main 192 192 P________PP___ EP061951 17.6644 -105.696 TS 45 0 17.6644 -105.696 TC 45 17.7058 -105.781 2 12 296
1951237N16259 1951 60 EP MM NOT_NAMED 1951-08-25 06:00:00 TS 17.9137 -106.226 45 hurdat_epa main 207 207 O________OP___ hurdat_epa EP061951 17.9000 -106.200 TS 45 0 17.9000 -106.200 TC 45 17.9684 -106.331 2 11 298
1951237N16259 1951 60 EP MM NOT_NAMED 1951-08-25 09:00:00 TS 18.1922 -106.757 main 230 229 P________PP___ EP061951 18.1848 -106.743 TS 45 0 18.1848 -106.743 TC 45 18.2220 -106.815 2 12 300
1951237N16259 1951 60 EP MM NOT_NAMED 1951-08-25 12:00:00 TS 18.5000 -107.300 45 hurdat_epa main 249 249 O________OO___ hurdat_epa EP061951 18.5000 -107.300 TS 45 0 18.5000 -107.300 TC 45 18.5000 -107.300 2 13 301
1951237N16259 1951 60 EP MM NOT_NAMED 1951-08-25 15:00:00 TS 18.8363 -107.892 main 285 280 P________PP___ EP061951 18.8349 -107.893 TS 45 0 18.8349 -107.893 TC 45 18.8419 -107.890 2 13 302
1951237N16259 1951 60 EP MM NOT_NAMED 1951-08-25 18:00:00 TS 19.2024 -108.499 45 hurdat_epa main 322 322 O________OP___ hurdat_epa EP061951 19.2000 -108.500 TS 45 0 19.2000 -108.500 TC 45 19.2122 -108.493 2 14 304
1951237N16259 1951 60 EP MM NOT_NAMED 1951-08-25 21:00:00 TS 19.5941 -109.100 main 366 324 P________PP___ EP061951 19.5923 -109.100 TS 45 0 19.5923 -109.100 TC 45 19.6013 -109.100 2 14 305
1951237N16259 1951 60 EP MM NOT_NAMED 1951-08-26 00:00:00 TS 20.0000 -109.700 45 hurdat_epa main 324 281 O________OO___ hurdat_epa EP061951 20.0000 -109.700 TS 45 0 20.0000 -109.700 TC 45 20.0000 -109.700 2 14 305
1951237N16259 1951 60 EP MM NOT_NAMED 1951-08-26 03:00:00 TS 20.3919 -110.305 main 281 252 P________PP___ EP061951 20.3999 -110.308 TS 45 0 20.3999 -110.308 TC 45 20.3599 -110.296 2 14 305
1951237N16259 1951 60 EP MM NOT_NAMED 1951-08-26 06:00:00 TS 20.7864 -110.896 45 hurdat_epa main 252 236 O________OP___ hurdat_epa EP061951 20.8000 -110.900 TS 45 0 20.8000 -110.900 TC 45 20.7321 -110.882 2 13 308
1951237N16259 1951 60 EP MM NOT_NAMED 1951-08-26 09:00:00 TS 21.2051 -111.427 main 238 235 P________PP___ EP061951 21.2218 -111.420 TS 45 0 21.2218 -111.420 TC 45 21.1382 -111.452 2 13 308
1951237N16259 1951 60 EP MM NOT_NAMED 1951-08-26 12:00:00 TS 21.6000 -112.000 45 hurdat_epa main 251 251 O________OO___ hurdat_epa EP061951 21.6000 -112.000 TS 45 0 21.6000 -112.000 TC 45 21.6000 -112.000 2 14 301
1951237N16259 1951 60 EP MM NOT_NAMED 1951-08-26 15:00:00 TS 21.9276 -112.721 main 294 292 P________PP___ EP061951 21.8802 -112.770 TS 45 0 21.8802 -112.770 TC 45 22.1174 -112.523 2 15 294
1951237N16259 1951 60 EP MM NOT_NAMED 1951-08-26 18:00:00 TS 22.2188 -113.485 45 hurdat_epa main 310 306 O________OP___ hurdat_epa EP061951 22.1000 -113.600 TS 45 0 22.1000 -113.600 TC 45 22.6941 -113.025 2 15 292
1951237N16259 1951 60 EP MM NOT_NAMED 1951-08-26 21:00:00 TS 22.4870 -114.249 main 325 325 P________PP___ EP061951 22.2778 -114.433 TS 45 0 22.2778 -114.433 TC 45 23.3238 -113.514 2 14 294
1951237N16259 1951 60 EP MM NOT_NAMED 1951-08-27 00:00:00 TS 22.8000 -114.880 45 hurdat_epa main 354 350 O________OO___ hurdat_epa EP061951 22.5000 -115.100 TS 45 0 22.5000 -115.100 TC 45 24.0000 -114.000 2 12 308
1951237N16259 1951 60 EP MM NOT_NAMED 1951-08-27 03:00:00 TS 23.2348 -115.272 main 361 350 P________PP___ EP061951 22.8544 -115.448 TS 45 0 22.8544 -115.448 TC 45 24.7562 -114.570 2 11 329
1951237N16259 1951 60 EP MM NOT_NAMED 1951-08-27 06:00:00 TS 23.7492 -115.506 45 hurdat_epa main 356 349 O________OP___ hurdat_epa EP061951 23.3000 -115.600 TS 45 0 23.3000 -115.600 TC 45 25.5461 -115.130 2 11 339
1951237N16259 1951 60 EP MM NOT_NAMED 1951-08-27 09:00:00 TS 24.2725 -115.709 main 340 302 P________PP___ EP061951 23.7624 -115.730 TS 45 0 23.7624 -115.730 TC 45 26.3127 -115.626 2 11 344
1951237N16259 1951 60 EP MM NOT_NAMED 1951-08-27 12:00:00 TS 24.8400 -115.840 45 hurdat_epa main 302 250 O________OO___ hurdat_epa EP061951 24.3000 -115.800 TS 45 0 24.3000 -115.800 TC 45 27.0000 -116.000 2 12 350
1951237N16259 1951 60 EP MM NOT_NAMED 1951-08-27 15:00:00 TS 25.4457 -115.926 main 250 207 P________PP___ EP061951 24.9275 -115.858 TS 45 0 24.9275 -115.858 TC 45 27.5187 -116.199 2 12 355
1951237N16259 1951 60 EP MM NOT_NAMED 1951-08-27 18:00:00 TS 26.0717 -115.974 45 hurdat_epa main 200 149 O________OP___ hurdat_epa EP061951 25.6000 -115.900 TS 45 0 25.6000 -115.900 TC 45 27.9585 -116.269 2 13 356
1951237N16259 1951 60 EP MM NOT_NAMED 1951-08-27 21:00:00 TS 26.6918 -116.017 main 149 113 P________PP___ EP061951 26.2725 -115.957 TS 45 0 26.2725 -115.957 TC 45 28.3692 -116.254 2 12 357
1951237N16259 1951 60 EP MM NOT_NAMED 1951-08-28 00:00:00 TS 27.2800 -116.040 45 hurdat_epa main 108 98 O________OO___ hurdat_epa EP061951 26.9000 -116.000 TS 45 0 26.9000 -116.000 TC 45 28.8000 -116.200 2 11 0
1951237N16259 1951 60 EP MM NOT_NAMED 1951-08-28 03:00:00 TS 27.8018 -116.035 main 98 98 P________PP___ EP061951 27.4300 -116.008 TS 45 0 27.4300 -116.008 TC 45 29.2892 -116.144 2 9 0
1951237N16259 1951 60 EP MM NOT_NAMED 1951-08-28 06:00:00 TS 28.2048 -116.015 45 hurdat_epa main 107 107 O________OP___ hurdat_epa EP061951 27.9000 -116.000 TS 45 0 27.9000 -116.000 TC 45 29.8306 -116.094 2 8 1
1951237N16259 1951 60 EP MM NOT_NAMED 1951-08-28 09:00:00 TS 28.5718 -116.018 main 118 95 P________PP___ EP061951 28.3425 -116.015 TS 45 0 28.3425 -116.015 TC 45 30.4067 -116.046 2 7 0
1951237N16259 1951 60 EP MM NOT_NAMED 1951-08-28 12:00:00 TS 28.9294 -116.000 45 hurdat_epa main 95 58 O________OO___ hurdat_epa EP061951 28.8000 -116.000 TS 45 0 28.8000 -116.000 TC 45 31.0000 -116.000 2 8 6
1951237N16259 1951 60 EP MM NOT_NAMED 1951-08-28 15:00:00 TS 29.3350 -115.923 main 58 0 P________P____ EP061951 29.3350 -115.923 TS 45 0 29.3350 -115.923 TC 45 2 10 10
1951237N16259 1951 60 EP MM NOT_NAMED 1951-08-28 18:00:00 TS 29.9000 -115.800 45 hurdat_epa main 0 0 O________O____ hurdat_epa EP061951 29.9000 -115.800 TS 45 0 29.9000 -115.800 TC 45 2 12 12
1951237N16259 1951 60 EP MM NOT_NAMED 1951-08-28 21:00:00 TS 30.4800 -115.650 main 0 0 P________P____ EP061951 30.4800 -115.650 TS 45 0 30.4800 -115.650 TC 45 2 11 13
1951237N16259 1951 60 EP MM NOT_NAMED 1951-08-29 00:00:00 TS 31.0000 -115.500 45 hurdat_epa main 0 0 O________O____ hurdat_epa EP061951 31.0000 -115.500 TS 45 0 31.0000 -115.500 TC 45 10 14
1951237N16259 1951 60 EP MM NOT_NAMED 1951-08-29 03:00:00 TS 31.4175 -115.385 main 0 0 P________P____ EP061951 31.4175 -115.385 TS 35 0 31.4175 -115.385 TC 35 7 14
1951237N16259 1951 60 EP MM NOT_NAMED 1951-08-29 06:00:00 TS 31.7000 -115.300 25 hurdat_epa main 0 0 O________O____ hurdat_epa EP061951 31.7000 -115.300 TD 25 -1 31.7000 -115.300 TC 25 4 16
1951237N16259 1951 60 EP MM NOT_NAMED 1951-08-29 09:00:00 TS 31.8400 -115.243 main 0 0 P________P____ EP061951 31.8400 -115.243 TD 25 -1 31.8400 -115.243 TC 25 2 25
1951237N16259 1951 60 EP MM NOT_NAMED 1951-08-29 12:00:00 TS 31.9000 -115.200 25 hurdat_epa main 0 O________O____ hurdat_epa EP061951 31.9000 -115.200 TD 25 -1 31.9000 -115.200 TC 25 1 29

IBTrACS Databaseについて

本データベースは、米国NOAAが公開する1842年以降の世界の熱帯低気圧のベストトラックデータアーカイブInternational Best Track Archive for Climate Stewardship (IBTrACS)を、ウェブで閲覧しやすい形式に変換したものです。

最終更新日:2021-10-08